Nakhon Si Thammarat Airport
VTSF : now visible

Airfield :











YOU CAN JOIN US ON...

 
LOGIN :

Register | Disclaimer

   EN    FR    IT 

 









Legend :    VFR   Marginal VFR   IFR   Intensive IFR   Very Intensive IFR
Visi :
Ceiling :
>= 8 km
>= 3000ft
5 to 8 km
1000 to 3000 ft
1500m to 5 km
500 to 1000 ft
800 to 1500m
200 to 500 ft
< 800m
< 200 ft
Symbols :   Thunderstorms  Fog  Heavy snow  Heavy precipitations  Wind > 20 kt






- Airport Elevation : 13 ft
- IATA code : NST


VTSF - Nakhon Si Thammarat

CURRENT METAR :
  • 230800Z VRB02KT 9999 FEW020 34/25 Q1005 NOSIG

EXPIRED METARs :
  • 230700Z 35005KT 300V050 9999 FEW020 33/24 Q1005 NOSIG
  • 230600Z VRB03KT 9999 FEW020 34/25 Q1006 NOSIG
  • 230500Z VRB05KT 9999 FEW020 33/25 Q1007 NOSIG
  • 230400Z 18006KT 150V250 9999 FEW020 32/25 Q1008 NOSIG

TAF TAF VTSF
Valid from the 23 at 06:00 until the 24 at 06:00 UTC


230500Z 2306/2406 10008KT 9999 FEW020 SCT100
BECMG 2313/2315 00000KT
BECMG 2403/2405 10008KT
VTBB FIR / Asia



MET'MAP, your aeronautical weather chart ! - Copyright ORBIFLY December 2007 - Disclaimer

ORBIFLY MET'MAP TEAM :

Programming & Development : Alexandra Zaïnal
Original concept : Baudouin d'Aumeries
Technical & hardware support : Manuel Goepfert
Assistance : Marc-Olivier Méhu




SOURCES & CREDITS :

   NOAA       Earth
Advisory